Time;durP1;ratioP1;P1;durP2;ratioP2;P2;SDS_P1;SDS_P2;PMS_P1;PMS_P2;Temp;Humidity;BMP_temperature;BMP_pressure;BME280_temperature;BME280_humidity;BME280_pressure;Samples;Min_cycle;Max_cycle;Signal;HPM_P1;HPM_P2
2023/01/23 00:02:16;;;;;;;0.00;0.00;;;;;;;11.92;72.90;102449.78;7362358;19;20359;-57
2023/01/23 00:04:41;;;;;;;0.10;0.10;;;;;;;11.91;72.76;102441.91;7360753;19;20077;-58
2023/01/23 00:07:06;;;;;;;0.00;0.00;;;;;;;11.90;72.61;102435.81;7363443;19;20078;-58
2023/01/23 00:09:32;;;;;;;0.10;0.10;;;;;;;11.91;72.51;102453.28;7361926;19;20011;-57
2023/01/23 00:11:58;;;;;;;0.10;0.10;;;;;;;11.91;72.43;102449.75;7362162;19;20690;-57
2023/01/23 00:14:23;;;;;;;0.00;0.00;;;;;;;11.90;72.54;102445.41;7363312;19;20021;-57
2023/01/23 00:16:48;;;;;;;0.00;0.00;;;;;;;11.90;72.49;102440.16;7362165;19;20014;-58
2023/01/23 00:19:14;;;;;;;0.00;0.00;;;;;;;11.89;72.74;102452.38;7362407;19;20657;-57
2023/01/23 00:21:39;;;;;;;0.10;0.10;;;;;;;11.88;72.46;102457.63;7360356;19;20003;-58
2023/01/23 00:24:05;;;;;;;0.10;0.10;;;;;;;11.87;72.53;102455.91;7362827;19;20025;-58
2023/01/23 00:26:32;;;;;;;0.00;0.00;;;;;;;11.85;72.79;102452.38;7360012;19;20089;-59
2023/01/23 00:28:57;;;;;;;0.10;0.10;;;;;;;11.85;72.63;102444.53;7362248;19;20011;-57
2023/01/23 00:31:29;;;;;;;0.08;0.08;;;;;;;11.88;72.76;102455.88;7361766;19;20017;-57
2023/01/23 00:33:57;;;;;;;0.10;0.10;;;;;;;11.86;72.86;102459.34;7361244;19;20011;-59
2023/01/23 00:36:26;;;;;;;0.00;0.00;;;;;;;11.85;72.56;102462.84;7362320;19;20077;-57
2023/01/23 00:38:51;;;;;;;0.10;0.10;;;;;;;11.85;72.88;102462.84;7359661;19;20153;-58
2023/01/23 00:41:17;;;;;;;0.10;0.10;;;;;;;11.85;72.66;102462.84;7361569;19;20030;-58
2023/01/23 00:43:43;;;;;;;0.10;0.10;;;;;;;11.85;72.96;102457.63;7362449;19;20837;-57
2023/01/23 00:46:09;;;;;;;0.00;0.00;;;;;;;11.85;72.72;102461.09;7362032;19;20118;-58
2023/01/23 00:48:34;;;;;;;0.10;0.10;;;;;;;11.84;72.99;102472.47;7358662;19;22970;-57
2023/01/23 00:51:00;;;;;;;0.10;0.10;;;;;;;11.86;73.02;102475.06;7360967;19;20019;-58
2023/01/23 00:53:25;;;;;;;0.00;0.00;;;;;;;11.86;72.82;102475.06;7361386;19;20018;-58
2023/01/23 00:55:52;;;;;;;0.10;0.10;;;;;;;11.86;73.17;102481.22;7360064;19;20006;-58
2023/01/23 00:58:17;;;;;;;0.00;0.00;;;;;;;11.87;73.02;102480.31;7363307;19;20029;-58
2023/01/23 01:00:43;;;;;;;0.10;0.10;;;;;;;11.87;72.85;102477.72;7358576;19;20018;-58
2023/01/23 01:03:08;;;;;;;0.00;0.00;;;;;;;11.88;73.03;102483.81;7361209;19;20031;-57
2023/01/23 01:05:34;;;;;;;0.10;0.10;;;;;;;11.85;73.05;102478.56;7360194;19;20038;-58
2023/01/23 01:07:59;;;;;;;0.10;0.10;;;;;;;11.84;72.96;102476.81;7362500;19;20026;-56
2023/01/23 01:10:28;;;;;;;0.10;0.10;;;;;;;11.89;72.68;102482.94;7360552;19;20034;-58
2023/01/23 01:12:57;;;;;;;0.10;0.10;;;;;;;11.91;72.64;102483.78;7357403;19;20241;-58
2023/01/23 01:15:23;;;;;;;0.10;0.10;;;;;;;11.89;72.90;102482.94;7361443;19;20043;-57
2023/01/23 01:17:48;;;;;;;0.10;0.10;;;;;;;11.90;72.85;102489.91;7360407;19;20018;-58
2023/01/23 01:20:14;;;;;;;0.10;0.10;;;;;;;11.89;72.67;102488.16;7361257;19;20031;-58
2023/01/23 01:22:40;;;;;;;0.10;0.10;;;;;;;11.90;72.71;102488.16;7357421;19;20724;-57
2023/01/23 01:25:05;;;;;;;0.00;0.00;;;;;;;11.91;72.89;102494.25;7360648;19;20719;-57
2023/01/23 01:27:31;;;;;;;0.10;0.10;;;;;;;11.80;72.68;102475.91;7361073;19;20108;-58
2023/01/23 01:29:56;;;;;;;0.00;0.00;;;;;;;11.91;72.72;102502.13;7360882;19;20010;-58
2023/01/23 01:32:22;;;;;;;0.00;0.00;;;;;;;11.91;72.81;102496.88;7360444;19;20018;-58
2023/01/23 01:34:47;;;;;;;0.10;0.10;;;;;;;11.80;73.11;102480.28;7357784;19;20424;-57
2023/01/23 01:37:12;;;;;;;0.05;0.05;;;;;;;11.91;73.03;102495.16;7360204;19;20010;-58
2023/01/23 01:39:38;;;;;;;0.00;0.00;;;;;;;11.92;72.96;102494.28;7360431;19;20026;-58
2023/01/23 01:42:03;;;;;;;0.10;0.10;;;;;;;11.91;72.62;102500.41;7360527;19;20602;-58
2023/01/23 01:44:53;;;;;;;0.10;0.10;;;;;;;11.98;72.24;102500.41;7361905;19;24574;-58
2023/01/23 01:47:18;;;;;;;0.05;0.05;;;;;;;11.95;72.76;102506.50;7259282;19;2004441;-57
2023/01/23 01:49:44;;;;;;;0.03;0.03;;;;;;;11.97;72.49;102517.00;7359480;19;20111;-58
2023/01/23 01:52:12;;;;;;;0.10;0.10;;;;;;;11.99;72.79;102516.09;7360229;19;20807;-58
2023/01/23 01:54:41;;;;;;;0.10;0.10;;;;;;;12.02;72.69;102513.50;7359046;19;20022;-56
2023/01/23 01:57:16;;;;;;;0.03;0.03;;;;;;;12.05;72.45;102513.47;7361376;19;20835;-56
2023/01/23 01:59:49;;;;;;;0.00;0.00;;;;;;;12.07;72.35;102511.75;7358736;19;20669;-58
2023/01/23 02:02:26;;;;;;;0.10;0.10;;;;;;;12.09;72.79;102510.00;7357265;19;20010;-58
2023/01/23 02:04:56;;;;;;;0.10;0.10;;;;;;;12.04;72.38;102506.50;7357768;19;20010;-58
2023/01/23 02:07:41;;;;;;;0.00;0.00;;;;;;;12.15;72.06;102514.34;7355967;19;20151;-58
2023/01/23 02:10:08;;;;;;;0.00;0.00;;;;;;;12.04;72.66;102501.25;7357003;19;20022;-58
2023/01/23 02:12:34;;;;;;;0.00;0.00;;;;;;;12.10;72.35;102500.38;7359061;19;20032;-56
2023/01/23 02:15:01;;;;;;;0.00;0.00;;;;;;;12.19;72.74;102516.97;7356598;19;20976;-58
2023/01/23 02:17:29;;;;;;;0.10;0.10;;;;;;;12.20;72.15;102512.59;7360229;19;20007;-58
2023/01/23 02:20:15;;;;;;;0.00;0.00;;;;;;;12.25;72.40;102516.09;7357179;19;20016;-58
2023/01/23 02:22:57;;;;;;;0.00;0.00;;;;;;;12.28;72.46;102515.22;7257538;19;2004349;-58
2023/01/23 02:25:30;;;;;;;0.10;0.10;;;;;;;12.29;72.13;102511.75;7355737;19;20011;-58
2023/01/23 02:27:56;;;;;;;0.00;0.00;;;;;;;12.19;72.75;102500.38;7358801;19;20015;-57
2023/01/23 02:30:22;;;;;;;0.10;0.10;;;;;;;12.29;72.59;102511.75;7357170;19;25478;-58
2023/01/23 02:32:48;;;;;;;0.10;0.10;;;;;;;12.28;72.46;102507.38;7361221;19;20825;-57
2023/01/23 02:35:26;;;;;;;0.10;0.10;;;;;;;12.30;71.95;102497.75;7371195;19;20010;-58
2023/01/23 02:37:57;;;;;;;0.10;0.10;;;;;;;12.34;72.28;102504.75;7375282;19;20016;-58
2023/01/23 02:40:37;;;;;;;0.00;0.00;;;;;;;12.36;71.91;102497.75;7370350;19;20017;-58
2023/01/23 02:43:05;;;;;;;0.08;0.08;;;;;;;12.34;72.47;102494.28;7373213;19;20018;-57
2023/01/23 02:45:31;;;;;;;0.00;0.00;;;;;;;12.36;72.37;102495.13;7371389;19;20029;-57
2023/01/23 02:47:56;;;;;;;0.10;0.10;;;;;;;12.37;72.27;102499.50;7373892;19;20006;-58
2023/01/23 02:50:22;;;;;;;0.00;0.00;;;;;;;12.38;72.57;102498.63;7370250;19;20014;-58
2023/01/23 02:52:49;;;;;;;0.10;0.10;;;;;;;12.38;72.59;102496.88;7373055;19;20107;-58
2023/01/23 02:55:15;;;;;;;;;;;;;;;12.45;71.35;102492.50;7372399;19;20010;-58
2023/01/23 02:57:40;;;;;;;0.00;0.00;;;;;;;12.42;71.80;102492.53;7366496;19;19940;-58
2023/01/23 03:00:15;;;;;;;0.00;0.00;;;;;;;12.41;72.12;102488.13;7367407;19;20006;-58
2023/01/23 03:02:42;;;;;;;0.00;0.00;;;;;;;12.43;71.75;102483.78;7370784;19;20002;-57
2023/01/23 03:05:08;;;;;;;0.10;0.10;;;;;;;12.41;71.83;102480.28;7368968;19;20850;-57
2023/01/23 03:07:34;;;;;;;0.00;0.00;;;;;;;12.43;71.85;102479.41;7373726;19;20006;-58
2023/01/23 03:10:00;;;;;;;0.10;0.10;;;;;;;12.43;72.37;102478.53;7369103;19;20060;-58
2023/01/23 03:12:26;;;;;;;0.00;0.00;;;;;;;12.41;72.03;102477.66;7374763;19;20455;-58
2023/01/23 03:14:53;;;;;;;0.00;0.00;;;;;;;12.41;72.49;102475.03;7370930;19;20006;-57
2023/01/23 03:17:19;;;;;;;0.10;0.10;;;;;;;12.43;72.06;102473.31;7373152;19;20395;-56
2023/01/23 03:19:45;;;;;;;0.08;0.08;;;;;;;12.44;72.30;102480.28;7371189;19;20092;-58
2023/01/23 03:22:10;;;;;;;0.00;0.00;;;;;;;12.44;72.04;102486.38;7370419;19;20009;-57
2023/01/23 03:24:36;;;;;;;0.00;0.00;;;;;;;12.45;71.94;102482.00;7373611;19;20486;-58
2023/01/23 03:27:01;;;;;;;0.10;0.10;;;;;;;12.46;72.14;102489.88;7371445;19;20009;-57
2023/01/23 03:32:12;;;;;;;0.10;0.10;;;;;;;12.49;71.98;102494.25;7371398;19;20037;-57
2023/01/23 03:34:37;;;;;;;0.10;0.10;;;;;;;12.46;72.11;102489.00;7371455;19;20018;-56
2023/01/23 03:37:03;;;;;;;0.00;0.00;;;;;;;12.49;72.48;102493.38;7374200;19;20018;-58
2023/01/23 03:42:13;;;;;;;0.00;0.00;;;;;;;12.49;72.26;102494.25;7371583;19;20099;-57
2023/01/23 03:44:39;;;;;;;0.00;0.00;;;;;;;12.50;72.17;102495.97;7370463;19;21508;-58
2023/01/23 03:47:05;;;;;;;0.05;0.05;;;;;;;12.49;71.96;102486.38;7363145;19;20018;-58
2023/01/23 03:49:31;;;;;;;0.10;0.10;;;;;;;12.50;72.27;102495.97;7364290;19;20019;-58
2023/01/23 03:51:56;;;;;;;0.10;0.10;;;;;;;12.39;71.99;102476.78;7365101;19;20822;-58
2023/01/23 03:54:22;;;;;;;0.10;0.10;;;;;;;12.50;71.94;102490.75;7361280;19;20572;-56
2023/01/23 03:56:47;;;;;;;0.10;0.10;;;;;;;12.51;72.05;102487.25;7365410;19;20026;-58
2023/01/23 03:59:13;;;;;;;0.10;0.10;;;;;;;12.51;72.17;102487.25;7360533;19;20031;-58
2023/01/23 04:01:38;;;;;;;0.00;0.00;;;;;;;12.50;72.18;102490.75;7362838;19;20010;-58
2023/01/23 04:04:04;;;;;;;0.08;0.08;;;;;;;12.51;71.94;102497.72;7355405;19;21505;-57
2023/01/23 04:06:30;;;;;;;0.10;0.10;;;;;;;12.50;72.13;102498.59;7358169;19;20081;-58
2023/01/23 04:08:57;;;;;;;0.10;0.10;;;;;;;12.50;72.38;102506.47;7366314;19;20811;-58
2023/01/23 04:11:23;;;;;;;0.10;0.10;;;;;;;12.45;72.11;102497.72;7361335;19;20021;-58
2023/01/23 04:13:49;;;;;;;0.08;0.08;;;;;;;12.50;72.13;102506.47;7366977;19;20027;-57
2023/01/23 04:16:14;;;;;;;0.00;0.00;;;;;;;12.48;72.47;102497.75;7363614;19;20014;-58
2023/01/23 04:18:39;;;;;;;0.00;0.00;;;;;;;12.47;72.44;102503.88;7365287;19;20057;-58
2023/01/23 04:21:05;;;;;;;0.10;0.10;;;;;;;12.47;72.70;102501.25;7351824;19;20573;-56
2023/01/23 04:23:30;;;;;;;0.00;0.00;;;;;;;12.46;72.70;102499.47;7362865;19;20796;-58
2023/01/23 04:25:56;;;;;;;0.10;0.10;;;;;;;12.37;72.57;102496.91;7361910;19;20006;-58
2023/01/23 04:28:22;;;;;;;0.10;0.10;;;;;;;12.39;72.37;102505.63;7362967;19;20107;-58
2023/01/23 04:30:51;;;;;;;0.00;0.00;;;;;;;12.44;72.70;102509.97;7364742;19;20011;-58
2023/01/23 04:33:18;;;;;;;0.00;0.00;;;;;;;12.39;72.70;102508.22;7363198;19;20077;-58
2023/01/23 04:35:53;;;;;;;0.10;0.10;;;;;;;12.42;72.64;102510.88;7365274;19;20010;-58
2023/01/23 04:38:19;;;;;;;0.00;0.00;;;;;;;12.39;72.67;102513.47;7360655;19;20513;-58
2023/01/23 04:40:45;;;;;;;0.10;0.10;;;;;;;12.39;72.88;102518.72;7361630;19;20026;-58
2023/01/23 04:43:11;;;;;;;0.03;0.03;;;;;;;12.34;72.59;102510.84;7359882;19;20041;-57
2023/01/23 04:45:36;;;;;;;0.00;0.00;;;;;;;12.37;72.91;102517.84;7361407;19;20196;-57
2023/01/23 04:48:02;;;;;;;0.10;0.10;;;;;;;12.38;72.43;102519.59;7365759;19;20006;-58
2023/01/23 04:50:28;;;;;;;0.10;0.10;;;;;;;12.33;72.49;102514.34;7363788;19;20006;-58
2023/01/23 04:52:53;;;;;;;0.10;0.10;;;;;;;12.25;72.82;102499.50;7364430;19;20018;-56
2023/01/23 04:55:18;;;;;;;0.00;0.00;;;;;;;12.34;72.87;102521.34;7362852;19;20039;-58
2023/01/23 04:57:44;;;;;;;0.00;0.00;;;;;;;12.33;72.72;102522.22;7364171;19;20035;-58
2023/01/23 05:00:10;;;;;;;0.00;0.00;;;;;;;12.33;72.69;102529.22;7357800;19;20027;-58
2023/01/23 05:02:35;;;;;;;0.10;0.10;;;;;;;12.31;72.83;102530.94;7364063;19;20073;-57
2023/01/23 05:05:01;;;;;;;0.00;0.00;;;;;;;12.32;72.96;102537.94;7365430;19;20003;-57
2023/01/23 05:07:27;;;;;;;0.10;0.10;;;;;;;12.32;72.96;102543.19;7361803;19;20031;-58
2023/01/23 05:09:52;;;;;;;0.10;0.10;;;;;;;12.31;72.98;102541.41;7363100;19;20013;-58
2023/01/23 05:12:18;;;;;;;0.00;0.00;;;;;;;12.32;72.81;102548.41;7364579;19;20007;-58
2023/01/23 05:14:43;;;;;;;0.10;0.10;;;;;;;12.31;73.22;102546.66;7363836;19;20017;-58
2023/01/23 05:17:08;;;;;;;0.00;0.00;;;;;;;12.31;72.89;102557.13;7362631;19;20100;-58
2023/01/23 05:19:34;;;;;;;0.10;0.10;;;;;;;12.32;73.12;102556.28;7363227;19;20019;-57
2023/01/23 05:21:59;;;;;;;0.10;0.10;;;;;;;12.32;73.28;102564.13;7363056;19;20006;-58
2023/01/23 05:24:24;;;;;;;0.10;0.10;;;;;;;12.31;73.25;102567.59;7365774;19;20336;-58
2023/01/23 05:26:50;;;;;;;0.10;0.10;;;;;;;12.29;73.10;102578.09;7362453;19;20014;-58
2023/01/23 05:29:15;;;;;;;0.10;0.10;;;;;;;12.31;73.07;102584.19;7363669;19;20022;-58
2023/01/23 05:31:41;;;;;;;0.10;0.10;;;;;;;12.31;73.16;102575.47;7360975;19;20006;-58
2023/01/23 05:34:06;;;;;;;0.10;0.10;;;;;;;12.31;73.01;102583.31;7360878;19;20008;-58
2023/01/23 05:36:31;;;;;;;0.05;0.05;;;;;;;12.30;73.22;102581.59;7362318;19;20023;-57
2023/01/23 05:38:57;;;;;;;0.00;0.00;;;;;;;12.27;73.27;102571.13;7363061;19;20022;-58
2023/01/23 05:41:22;;;;;;;0.10;0.10;;;;;;;12.31;72.78;102562.38;7363334;19;20018;-58
2023/01/23 05:43:49;;;;;;;0.10;0.10;;;;;;;12.30;72.78;102566.75;7361373;19;20011;-58
2023/01/23 05:46:15;;;;;;;0.10;0.10;;;;;;;12.22;73.32;102546.69;7358879;19;20451;-57
2023/01/23 05:48:41;;;;;;;0.00;0.00;;;;;;;12.26;73.15;102553.63;7363436;19;20010;-57
2023/01/23 05:51:06;;;;;;;0.10;0.10;;;;;;;12.28;73.27;102558.03;7362511;19;20028;-58
2023/01/23 05:53:31;;;;;;;0.05;0.05;;;;;;;12.27;73.28;102560.66;7362382;19;20099;-58
2023/01/23 05:55:57;;;;;;;0.10;0.10;;;;;;;12.26;73.08;102564.13;7361160;19;20018;-58
2023/01/23 05:58:22;;;;;;;0.10;0.10;;;;;;;12.27;72.93;102556.28;7361449;19;20013;-58
2023/01/23 06:00:48;;;;;;;0.10;0.10;;;;;;;12.26;73.21;102544.03;7362413;19;20428;-58
2023/01/23 06:03:13;;;;;;;0.00;0.00;;;;;;;12.26;72.76;102532.69;7360523;19;20014;-57
2023/01/23 06:05:40;;;;;;;0.10;0.10;;;;;;;12.25;73.22;102530.94;7363252;19;20007;-57
2023/01/23 06:08:05;;;;;;;0.00;0.00;;;;;;;12.26;72.92;102530.06;7360570;19;20010;-57
2023/01/23 06:10:31;;;;;;;0.00;0.00;;;;;;;12.24;73.11;102524.84;7362331;19;20014;-57
2023/01/23 06:12:57;;;;;;;0.00;0.00;;;;;;;12.23;72.82;102527.47;7362059;19;20025;-56
2023/01/23 06:15:22;;;;;;;0.00;0.00;;;;;;;12.18;72.41;102515.22;7360042;19;20034;-58
2023/01/23 06:17:47;;;;;;;0.00;0.00;;;;;;;12.22;72.41;102518.72;7361556;19;20007;-58
2023/01/23 06:20:13;;;;;;;0.08;0.08;;;;;;;12.20;72.79;102518.72;7362082;19;20801;-58
2023/01/23 06:22:38;;;;;;;0.10;0.10;;;;;;;12.18;72.59;102510.00;7361379;19;20011;-58
2023/01/23 06:25:04;;;;;;;0.10;0.10;;;;;;;12.16;72.59;102516.97;7360667;19;20006;-58
2023/01/23 06:27:30;;;;;;;0.00;0.00;;;;;;;12.15;72.52;102516.97;7362120;19;20573;-58
2023/01/23 06:29:55;;;;;;;0.00;0.00;;;;;;;12.12;72.61;102517.88;7361293;19;20022;-57
2023/01/23 06:32:22;;;;;;;0.10;0.10;;;;;;;12.08;72.58;102505.63;7361223;19;20014;-57
2023/01/23 06:34:47;;;;;;;0.00;0.00;;;;;;;12.08;72.46;102513.50;7360824;19;20742;-58
2023/01/23 06:37:13;;;;;;;0.00;0.00;;;;;;;12.06;72.38;102515.22;7359653;19;20027;-57
2023/01/23 06:39:39;;;;;;;0.10;0.10;;;;;;;12.05;72.81;102512.59;7360482;19;20645;-59
2023/01/23 06:42:08;;;;;;;0.00;0.00;;;;;;;12.04;72.61;102521.34;7360270;19;20816;-57
2023/01/23 06:44:34;;;;;;;0.00;0.00;;;;;;;12.02;72.94;102523.09;7360221;19;20077;-58
2023/01/23 06:47:00;;;;;;;0.00;0.00;;;;;;;11.93;72.80;102524.81;7360189;19;20040;-58
2023/01/23 06:49:25;;;;;;;0.00;0.00;;;;;;;12.00;72.70;102546.63;7361658;19;20002;-58
2023/01/23 06:51:50;;;;;;;0.00;0.00;;;;;;;12.00;72.92;102551.88;7359939;19;20781;-57
2023/01/23 06:54:16;;;;;;;0.00;0.00;;;;;;;12.01;72.91;102557.97;7358912;19;20014;-57
2023/01/23 06:56:41;;;;;;;0.10;0.10;;;;;;;12.01;73.13;102557.97;7362540;19;20010;-58
2023/01/23 06:59:06;;;;;;;0.10;0.10;;;;;;;12.00;73.18;102557.13;7349361;19;20517;-58
2023/01/23 07:01:32;;;;;;;0.00;0.00;;;;;;;12.03;73.02;102566.72;7357581;19;20015;-57
2023/01/23 07:03:57;;;;;;;0.10;0.10;;;;;;;12.04;73.12;102568.47;7357418;19;20011;-57
2023/01/23 07:06:23;;;;;;;0.10;0.10;;;;;;;12.04;73.21;102569.34;7353620;19;20006;-57
2023/01/23 07:08:48;;;;;;;0.00;0.00;;;;;;;12.04;72.79;102574.59;7360361;19;20030;-58
2023/01/23 07:11:14;;;;;;;0.10;0.10;;;;;;;12.02;72.93;102565.00;7357323;19;20018;-58
2023/01/23 07:13:40;;;;;;;0.10;0.10;;;;;;;12.05;73.06;102578.94;7358421;19;20019;-58
2023/01/23 07:16:05;;;;;;;0.10;0.10;;;;;;;12.07;73.17;102585.06;7357256;19;20744;-57
2023/01/23 07:18:32;;;;;;;0.00;0.00;;;;;;;12.08;73.08;102592.06;7358728;19;20164;-58
2023/01/23 07:20:57;;;;;;;0.00;0.00;;;;;;;12.08;72.83;102596.41;7359329;19;20594;-57
2023/01/23 07:23:23;;;;;;;0.10;0.10;;;;;;;12.09;72.76;102604.25;7360647;19;20013;-58
2023/01/23 07:25:48;;;;;;;0.10;0.10;;;;;;;12.09;73.02;102609.50;7365177;19;20584;-58
2023/01/23 07:28:14;;;;;;;0.10;0.10;;;;;;;12.00;73.12;102595.53;7365815;19;20010;-58
2023/01/23 07:30:39;;;;;;;0.10;0.10;;;;;;;12.09;73.21;102619.97;7362109;19;20018;-57
2023/01/23 07:33:05;;;;;;;0.10;0.10;;;;;;;12.10;72.85;102616.47;7364964;19;20010;-58
2023/01/23 07:35:31;;;;;;;0.00;0.00;;;;;;;12.06;72.82;102609.50;7361111;19;20017;-57
2023/01/23 07:37:56;;;;;;;0.10;0.10;;;;;;;12.12;72.77;102617.38;7366353;19;20963;-58
2023/01/23 07:40:22;;;;;;;0.00;0.00;;;;;;;12.12;72.78;102614.75;7360755;19;20010;-58
2023/01/23 07:42:47;;;;;;;0.00;0.00;;;;;;;12.12;73.21;102614.75;7365524;19;20534;-57
2023/01/23 07:45:13;;;;;;;0.00;0.00;;;;;;;12.13;73.05;102620.88;7361046;19;20901;-58
2023/01/23 07:47:39;;;;;;;0.00;0.00;;;;;;;12.06;72.96;102609.50;7351165;19;20336;-57
2023/01/23 07:50:10;;;;;;;0.10;0.10;;;;;;;12.11;72.98;102615.59;7363412;19;20662;-58
2023/01/23 07:52:36;;;;;;;0.00;0.00;;;;;;;12.00;73.12;102603.38;7344928;19;20406;-56
2023/01/23 07:55:01;;;;;;;0.10;0.10;;;;;;;12.09;73.15;102625.22;7364496;19;20027;-58
2023/01/23 07:57:27;;;;;;;0.10;0.10;;;;;;;12.06;72.90;102625.19;7364115;19;20011;-58
2023/01/23 07:59:52;;;;;;;0.00;0.00;;;;;;;12.06;73.18;102635.66;7362871;19;20153;-57
2023/01/23 08:02:18;;;;;;;0.10;0.10;;;;;;;12.06;72.79;102638.28;7361820;19;20032;-56
2023/01/23 08:04:43;;;;;;;0.10;0.10;;;;;;;12.05;73.23;102639.16;7356739;19;20636;-59
2023/01/23 08:07:09;;;;;;;0.00;0.00;;;;;;;12.04;73.06;102642.66;7359537;19;20017;-58
2023/01/23 08:09:34;;;;;;;0.00;0.00;;;;;;;12.04;72.82;102652.28;7359213;19;21180;-58
2023/01/23 08:12:00;;;;;;;0.08;0.08;;;;;;;12.02;73.30;102665.38;7363794;19;20025;-58
2023/01/23 08:14:26;;;;;;;0.10;0.10;;;;;;;12.02;73.35;102669.72;7364437;19;20477;-57
2023/01/23 08:16:52;;;;;;;0.10;0.10;;;;;;;12.00;73.19;102674.94;7362117;19;20010;-58
2023/01/23 08:19:18;;;;;;;0.00;0.00;;;;;;;12.02;73.40;102680.22;7360813;19;20017;-58
2023/01/23 08:21:44;;;;;;;0.00;0.00;;;;;;;12.01;73.33;102675.81;7360534;19;20018;-58
2023/01/23 08:24:13;;;;;;;0.08;0.08;;;;;;;12.01;73.08;102678.44;7362089;19;20058;-56
2023/01/23 08:26:40;;;;;;;0.03;0.03;;;;;;;12.00;73.43;102685.41;7362245;19;20933;-57
2023/01/23 08:29:06;;;;;;;0.00;0.00;;;;;;;12.00;73.19;102677.56;7360782;19;20007;-58
2023/01/23 08:31:31;;;;;;;0.10;0.10;;;;;;;12.00;73.42;102682.81;7360678;19;20010;-57
2023/01/23 08:33:56;;;;;;;0.00;0.00;;;;;;;11.98;73.05;102684.56;7359579;19;20022;-58
2023/01/23 08:36:22;;;;;;;0.00;0.00;;;;;;;11.92;73.10;102679.31;7356648;19;20014;-58
2023/01/23 08:38:47;;;;;;;0.10;0.10;;;;;;;12.01;73.28;102683.66;7359830;19;20344;-57
2023/01/23 08:41:14;;;;;;;0.00;0.00;;;;;;;12.00;72.99;102698.50;7355963;19;20018;-57
2023/01/23 08:43:40;;;;;;;0.00;0.00;;;;;;;12.01;73.41;102694.16;7360146;19;20007;-58
2023/01/23 08:46:07;;;;;;;0.00;0.00;;;;;;;12.01;73.46;102692.41;7359514;19;20014;-58
2023/01/23 08:48:34;;;;;;;0.10;0.10;;;;;;;12.00;73.21;102693.28;7364251;19;20123;-58
2023/01/23 08:51:07;;;;;;;0.00;0.00;;;;;;;12.03;73.39;102690.69;7362655;19;20023;-58
2023/01/23 08:53:34;;;;;;;0.00;0.00;;;;;;;12.00;73.43;102693.28;7361704;19;20006;-58
2023/01/23 08:56:05;;;;;;;0.10;0.10;;;;;;;11.97;73.32;102698.53;7359589;19;20802;-58
2023/01/23 08:58:30;;;;;;;0.00;0.00;;;;;;;12.01;73.12;102699.38;7353119;19;22060;-59
2023/01/23 09:00:56;;;;;;;0.00;0.00;;;;;;;12.02;72.95;102707.25;7351146;19;20009;-57
2023/01/23 09:03:21;;;;;;;0.10;0.10;;;;;;;12.02;73.35;102709.88;7351869;19;20007;-57
2023/01/23 09:05:47;;;;;;;0.00;0.00;;;;;;;12.02;73.46;102712.50;7359734;19;20697;-57
2023/01/23 09:08:12;;;;;;;0.10;0.10;;;;;;;12.03;73.02;102709.00;7357049;19;20018;-58
2023/01/23 09:10:38;;;;;;;0.10;0.10;;;;;;;12.04;73.16;102710.75;7357017;19;20022;-58
2023/01/23 09:13:03;;;;;;;0.08;0.08;;;;;;;12.05;73.17;102702.03;7355325;19;20733;-58
2023/01/23 09:15:29;;;;;;;0.10;0.10;;;;;;;12.06;73.11;102702.88;7358061;19;20018;-57
2023/01/23 09:17:55;;;;;;;0.00;0.00;;;;;;;12.06;73.25;102695.91;7354119;19;20563;-59
2023/01/23 09:20:21;;;;;;;0.10;0.10;;;;;;;12.08;73.34;102698.56;7360987;19;20018;-58
2023/01/23 09:22:46;;;;;;;0.00;0.00;;;;;;;12.07;73.11;102695.06;7362257;19;20360;-57
2023/01/23 09:25:13;;;;;;;0.10;0.10;;;;;;;12.08;73.20;102702.03;7364158;19;20462;-58
2023/01/23 09:27:38;;;;;;;0.08;0.08;;;;;;;12.09;73.02;102698.53;7360634;19;20014;-58
2023/01/23 09:30:05;;;;;;;0.10;0.10;;;;;;;12.09;72.96;102698.53;7361610;19;20014;-58
2023/01/23 09:32:30;;;;;;;0.10;0.10;;;;;;;12.12;73.10;102709.03;7363263;19;20010;-57
2023/01/23 09:34:56;;;;;;;0.00;0.00;;;;;;;12.13;73.32;102708.16;7351785;19;20138;-58
2023/01/23 09:37:21;;;;;;;0.10;0.10;;;;;;;12.15;73.33;102708.16;7361337;19;20010;-58
2023/01/23 09:39:47;;;;;;;0.08;0.08;;;;;;;12.15;73.12;102706.41;7358604;19;20002;-58
2023/01/23 09:42:21;;;;;;;0.05;0.05;;;;;;;12.22;73.20;102709.94;7362559;19;20019;-59
2023/01/23 09:44:52;;;;;;;0.10;0.10;;;;;;;12.23;72.79;102727.41;7358091;19;20102;-58
2023/01/23 09:47:37;;;;;;;0.00;0.00;;;;;;;12.25;72.63;102725.66;7359149;19;20006;-58
2023/01/23 09:50:13;;;;;;;0.10;0.10;;;;;;;12.26;73.11;102727.38;7356592;19;20010;-58
2023/01/23 09:52:47;;;;;;;0.08;0.08;;;;;;;12.29;72.69;102723.94;7360702;19;20010;-57
2023/01/23 09:55:16;;;;;;;0.10;0.10;;;;;;;12.28;72.89;102719.56;7360828;19;20014;-58
2023/01/23 09:57:44;;;;;;;0.00;0.00;;;;;;;12.30;73.21;102721.28;7359708;19;20189;-58
2023/01/23 10:00:18;;;;;;;0.00;0.00;;;;;;;12.35;72.71;102716.06;7360132;19;20934;-57
2023/01/23 10:02:44;;;;;;;0.08;0.08;;;;;;;12.34;73.13;102719.56;7361334;19;20006;-58
2023/01/23 10:05:17;;;;;;;0.10;0.10;;;;;;;12.31;72.67;102703.84;7361287;19;20479;-58
2023/01/23 10:07:45;;;;;;;0.00;0.00;;;;;;;12.41;73.01;102721.31;7358809;19;20017;-58
2023/01/23 10:10:43;;;;;;;0.10;0.10;;;;;;;12.50;72.35;102730.94;7361077;19;20017;-57
2023/01/23 10:13:27;;;;;;;0.00;0.00;;;;;;;12.54;72.28;102733.59;7259138;19;2004447;-57
2023/01/23 10:16:12;;;;;;;0.10;0.10;;;;;;;12.57;72.82;102736.22;7359560;19;20042;-58
2023/01/23 10:18:47;;;;;;;0.00;0.00;;;;;;;12.61;72.45;102745.81;7360144;19;20011;-58
2023/01/23 10:21:18;;;;;;;0.00;0.00;;;;;;;12.64;72.31;102731.84;7358026;19;20018;-58
2023/01/23 10:24:08;;;;;;;0.10;0.10;;;;;;;12.69;72.39;102738.84;7360620;19;20098;-58
2023/01/23 10:26:44;;;;;;;0.10;0.10;;;;;;;12.75;72.50;102729.25;7359159;19;20021;-57
2023/01/23 10:29:28;;;;;;;0.10;0.10;;;;;;;12.78;72.49;102739.75;7361422;19;20446;-57
2023/01/23 10:32:00;;;;;;;0.10;0.10;;;;;;;12.81;72.54;102737.97;7357437;19;20013;-58
2023/01/23 10:34:35;;;;;;;0.00;0.00;;;;;;;12.84;72.48;102739.75;7357489;19;20051;-58
2023/01/23 10:37:06;;;;;;;0.00;0.00;;;;;;;12.88;72.26;102744.13;7359433;19;20045;-58
2023/01/23 10:39:49;;;;;;;0.00;0.00;;;;;;;12.94;72.31;102744.97;7359272;19;20017;-57
2023/01/23 10:42:18;;;;;;;0.10;0.10;;;;;;;12.93;72.27;102743.25;7360522;19;20018;-57
2023/01/23 10:44:43;;;;;;;0.10;0.10;;;;;;;12.94;72.14;102741.50;7356689;19;20010;-57
2023/01/23 10:47:30;;;;;;;0.00;0.00;;;;;;;13.03;72.00;102744.13;7357805;19;20025;-59
2023/01/23 10:49:55;;;;;;;0.10;0.10;;;;;;;13.01;72.11;102743.22;7361793;19;20011;-58
2023/01/23 10:52:29;;;;;;;0.10;0.10;;;;;;;13.07;72.42;102745.84;7360748;19;20017;-58
2023/01/23 10:54:55;;;;;;;0.10;0.10;;;;;;;13.07;72.08;102745.84;7364178;19;20014;-57
2023/01/23 10:57:24;;;;;;;0.00;0.00;;;;;;;13.06;72.18;102732.72;7364137;19;22677;-58
2023/01/23 10:59:49;;;;;;;0.00;0.00;;;;;;;13.16;71.98;102743.22;7366661;19;20014;-56
2023/01/23 11:02:19;;;;;;;0.10;0.10;;;;;;;13.21;72.10;102744.13;7364986;19;20018;-58
2023/01/23 11:04:48;;;;;;;0.10;0.10;;;;;;;13.30;71.98;102739.75;7362517;19;20462;-58
2023/01/23 11:07:19;;;;;;;0.00;0.00;;;;;;;13.37;71.91;102738.84;7364727;19;20620;-57
2023/01/23 11:09:49;;;;;;;0.00;0.00;;;;;;;13.43;72.10;102738.84;7365019;19;20014;-58
2023/01/23 11:12:18;;;;;;;0.08;0.08;;;;;;;13.46;71.71;102741.47;7366124;19;20384;-59
2023/01/23 11:14:44;;;;;;;0.10;0.10;;;;;;;13.48;71.81;102745.84;7360781;19;20018;-58
2023/01/23 11:17:20;;;;;;;0.10;0.10;;;;;;;13.53;71.61;102735.31;7367050;19;20010;-58
2023/01/23 11:19:50;;;;;;;0.10;0.10;;;;;;;13.53;71.52;102729.19;7365226;19;20015;-58
2023/01/23 11:22:35;;;;;;;0.03;0.03;;;;;;;13.61;71.60;102736.19;7361512;19;20556;-58
2023/01/23 11:25:26;;;;;;;0.00;0.00;;;;;;;13.67;71.49;102738.78;7366752;19;20014;-58
2023/01/23 11:28:00;;;;;;;0.10;0.10;;;;;;;13.71;71.43;102734.41;7366892;19;20018;-58
2023/01/23 11:30:55;;;;;;;0.10;0.10;;;;;;;13.74;71.57;102737.03;7364618;19;20488;-57
2023/01/23 11:33:50;;;;;;;0.10;0.10;;;;;;;13.78;71.61;102730.88;7260676;19;2004405;-58